Startpagina
METAR-TAF:

METAR-TAF

Vliegvelden :

Brussels South Charleroi Airport

Charleroi, België

breedte: 50-28N, lengte: 004-27E, hoogte: 187 m

Actueel weer

Dit bericht is 24 minuten geleden gemaakt, om 14:50 UTC
Wind 8 kt uit het noordoosten
Temperatuur 0°C
Vochtigheid 80%
Druk 1016 hPa
Zicht 10 km of meer
geen wolken onder 1500 m en geen cumulonimbus

METAR: EBCI 201450Z 04008KT CAVOK M00/M03 Q1016 NOSIG

Tijdstip: 16:14 (15:14 UTC)

Verwachting

Dit bericht is 4 uur en het 12 minuten geleden gemaakt, om 11:02 UTC
Verwachting geldig van 20 om 12 UTC tot 21 om 18 UTC
Wind 3 kt uit het oostnoordoosten
Zicht 10 km of meer
geen wolken onder 1500 m en geen cumulonimbus
Kans 40% :
Tijdelijke
van 21 om 02 UTC tot 21 om 10 UTC
Zicht: 2500 m
Ondiepe mist
Kans 30% :
Tijdelijke
van 21 om 04 UTC tot 21 om 09 UTC
Zicht: 1200 m
mistbanken

TAF: EBCI 201102Z 2012/2118 07003KT CAVOK PROB40 TEMPO 2102/2110 2500 MIFG PROB30 TEMPO 2104/2109 1200 BCFG

Waarnemingen en weersverwachtingen van meer dan 4000 vliegvelden (METAR en TAF).

De beschikbare stations zijn de gele en rode punten op de kaart.

Ga met uw muis naar het station om de naam te zien.

Klik dan om waarnemingen en weersverwachtingen te zien.

kaart wijzigen: klik op de groene knoppen met een zwart kruis om in te zoomen, op de groene knop met een streepje om uit te zoomen of op de groene pijlen voor aangrenzende kaarten.


METAR-TAF: